Terminal Aerodrome Forecast
Issued by NWS

Home | Current Version | Previous Version | Text Only | Print | Product List | Glossary On
Versions: 1 2 3 4 5 6 7 8 9 10 11 12 13 14
000
FTUS46 KSGX 030520
TAFONT
TAF
KONT 030520Z 0306/0412 VRB04KT P6SM SKC
     FM031100 VRB03KT 4SM BR BKN007
     FM031500 VRB03KT 5SM BR BKN011
     FM031700 VRB05KT 5SM HZ SCT015
     FM032000 25010G18KT P6SM SKC
     FM040400 VRB04KT P6SM FEW010
     FM040700 VRB03KT P6SM BKN012=

USA.gov is the U.S. government's official web portal to all federal, state and local government web resources and services.